createdAt,value
2023-04-07T00:00:06.383Z,540.93
2023-04-07T00:00:16.394Z,540.76
2023-04-07T00:00:26.391Z,540.93
2023-04-07T00:00:36.381Z,540.80
2023-04-07T00:00:46.385Z,540.69
2023-04-07T00:00:56.385Z,540.86
2023-04-07T00:01:06.410Z,540.83
2023-04-07T00:01:16.381Z,540.80
2023-04-07T00:01:26.385Z,540.74
2023-04-07T00:01:36.431Z,540.75
2023-04-07T00:01:46.456Z,540.76
2023-04-07T00:01:56.441Z,540.73
2023-04-07T00:02:06.439Z,540.70
2023-04-07T00:02:16.556Z,540.64
2023-04-07T00:02:26.448Z,540.71
2023-04-07T00:02:36.509Z,540.82
2023-04-07T00:02:46.421Z,540.79
2023-04-07T00:02:56.463Z,540.82
2023-04-07T00:03:06.491Z,540.70
2023-04-07T00:03:16.574Z,541.08
2023-04-07T00:03:26.568Z,540.90
2023-04-07T00:03:36.612Z,540.88
2023-04-07T00:03:46.532Z,540.87
2023-04-07T00:04:06.600Z,540.73
2023-04-07T00:04:16.584Z,540.76
2023-04-07T00:04:26.584Z,540.79
2023-04-07T00:04:36.489Z,540.75
2023-04-07T00:04:46.481Z,540.79
2023-04-07T00:04:56.488Z,540.85
2023-04-07T00:05:06.528Z,540.86
2023-04-07T00:05:16.400Z,540.70
2023-04-07T00:05:26.408Z,540.79
2023-04-07T00:05:36.408Z,540.80
2023-04-07T00:05:46.406Z,540.84
2023-04-07T00:06:06.444Z,540.77
2023-04-07T00:06:16.415Z,540.69
2023-04-07T00:06:26.414Z,540.74
2023-04-07T00:06:36.418Z,540.70
2023-04-07T00:06:46.418Z,540.80
2023-04-07T00:06:56.407Z,540.77
2023-04-07T00:07:16.406Z,540.84
2023-04-07T00:07:26.406Z,540.86
2023-04-07T00:07:42.175Z,540.88
2023-04-07T00:07:55.726Z,540.85
2023-04-07T00:07:57.621Z,540.84
2023-04-07T00:08:06.416Z,540.80
2023-04-07T00:08:16.430Z,540.81
2023-04-07T00:08:26.413Z,540.78
2023-04-07T00:08:36.421Z,540.88
2023-04-07T00:08:56.417Z,540.86
2023-04-07T00:09:06.423Z,540.90
2023-04-07T00:09:16.418Z,540.84
2023-04-07T00:09:26.431Z,540.87
2023-04-07T00:09:36.417Z,540.89
2023-04-07T00:09:46.421Z,540.83
2023-04-07T00:09:56.431Z,540.90
2023-04-07T00:10:06.420Z,540.77
2023-04-07T00:10:16.454Z,540.80
2023-04-07T00:10:36.421Z,540.88
2023-04-07T00:10:46.424Z,540.84
2023-04-07T00:10:56.432Z,540.82
2023-04-07T00:11:06.427Z,540.78
2023-04-07T00:11:16.432Z,540.78
2023-04-07T00:11:26.425Z,540.76
2023-04-07T00:11:36.431Z,540.87
2023-04-07T00:11:46.429Z,540.74
2023-04-07T00:11:56.432Z,540.85
2023-04-07T00:12:06.438Z,540.88
2023-04-07T00:12:16.433Z,540.88
2023-04-07T00:12:26.428Z,540.88
2023-04-07T00:12:36.433Z,540.85
2023-04-07T00:12:46.435Z,540.89
2023-04-07T00:12:56.431Z,540.85
2023-04-07T00:13:06.431Z,540.85
2023-04-07T00:13:16.430Z,540.83
2023-04-07T00:13:26.435Z,540.92
2023-04-07T00:13:36.437Z,540.92
2023-04-07T00:13:46.436Z,540.86
2023-04-07T00:13:56.590Z,540.84
2023-04-07T00:14:06.450Z,540.81
2023-04-07T00:14:16.440Z,540.94
2023-04-07T00:14:26.445Z,540.93
2023-04-07T00:14:36.468Z,540.87
2023-04-07T00:14:46.448Z,540.96
2023-04-07T00:14:56.447Z,540.98
2023-04-07T00:15:06.455Z,540.99
2023-04-07T00:15:16.460Z,540.95
2023-04-07T00:15:26.445Z,541.02
2023-04-07T00:15:46.479Z,540.99
2023-04-07T00:15:56.463Z,540.95
2023-04-07T00:16:06.538Z,541.05
2023-04-07T00:16:16.471Z,541.11
2023-04-07T00:16:26.484Z,541.07
2023-04-07T00:16:36.446Z,541.15
2023-04-07T00:16:46.451Z,541.06
2023-04-07T00:16:56.449Z,541.15
2023-04-07T00:17:06.447Z,541.12
2023-04-07T00:17:16.470Z,541.11
2023-04-07T00:17:26.456Z,541.09
2023-04-07T00:17:36.482Z,541.07
2023-04-07T00:17:46.473Z,541.17
2023-04-07T00:17:56.582Z,541.08
2023-04-07T00:18:06.482Z,541.18
2023-04-07T00:18:16.455Z,541.11
2023-04-07T00:18:26.458Z,541.16
2023-04-07T00:18:36.514Z,541.20
2023-04-07T00:18:46.466Z,541.22
2023-04-07T00:19:06.466Z,541.18
2023-04-07T00:19:16.631Z,541.17
2023-04-07T00:19:26.464Z,541.16
2023-04-07T00:19:36.467Z,541.25
2023-04-07T00:19:46.463Z,541.20
2023-04-07T00:19:56.464Z,541.16
2023-04-07T00:20:06.472Z,541.13
2023-04-07T00:20:26.485Z,541.18
2023-04-07T00:20:36.473Z,541.27
2023-04-07T00:20:46.475Z,541.20
2023-04-07T00:20:56.496Z,541.29
2023-04-07T00:21:06.471Z,541.33
2023-04-07T00:21:16.476Z,541.31
2023-04-07T00:21:36.467Z,541.26
2023-04-07T00:21:46.471Z,541.41
2023-04-07T00:21:56.480Z,541.30
2023-04-07T00:22:06.470Z,541.34
2023-04-07T00:22:16.492Z,541.28
2023-04-07T00:22:26.481Z,541.36
2023-04-07T00:22:36.488Z,541.31
2023-04-07T00:22:46.503Z,541.28
2023-04-07T00:22:56.489Z,541.36
2023-04-07T00:23:06.482Z,541.33
2023-04-07T00:23:16.489Z,541.39
2023-04-07T00:23:26.479Z,541.30
2023-04-07T00:23:36.490Z,541.27
2023-04-07T00:23:56.539Z,541.28
2023-04-07T00:24:06.479Z,541.26
2023-04-07T00:24:24.088Z,541.33
2023-04-07T00:24:34.309Z,541.23
2023-04-07T00:24:37.486Z,541.26
2023-04-07T00:24:46.493Z,541.24
2023-04-07T00:24:56.490Z,541.25
2023-04-07T00:25:06.492Z,541.14
2023-04-07T00:25:16.503Z,541.20
2023-04-07T00:25:36.542Z,541.18
2023-04-07T00:25:46.493Z,541.09
2023-04-07T00:25:56.506Z,541.18
2023-04-07T00:26:06.503Z,541.10
2023-04-07T00:26:16.492Z,541.10
2023-04-07T00:26:26.507Z,541.16
2023-04-07T00:26:36.498Z,541.11
2023-04-07T00:26:56.496Z,541.13
2023-04-07T00:27:06.498Z,541.07
2023-04-07T00:27:16.495Z,541.07
2023-04-07T00:27:26.497Z,541.28
2023-04-07T00:27:36.502Z,541.14
2023-04-07T00:27:46.498Z,541.14
2023-04-07T00:27:56.503Z,541.12
2023-04-07T00:28:06.529Z,541.14
2023-04-07T00:28:16.509Z,541.09
2023-04-07T00:28:26.522Z,541.20
2023-04-07T00:28:36.507Z,541.17
2023-04-07T00:28:46.546Z,541.11
2023-04-07T00:28:56.522Z,541.17
2023-04-07T00:29:06.529Z,541.12
2023-04-07T00:29:16.506Z,541.22
2023-04-07T00:29:26.516Z,541.27
2023-04-07T00:29:36.532Z,541.20
2023-04-07T00:29:56.548Z,541.18
2023-04-07T00:30:06.519Z,541.20
2023-04-07T00:30:16.513Z,541.14
2023-04-07T00:30:26.534Z,541.25
2023-04-07T00:30:36.560Z,541.14
2023-04-07T00:30:46.520Z,541.18
2023-04-07T00:30:56.549Z,541.20
2023-04-07T00:31:06.571Z,541.27
2023-04-07T00:31:16.534Z,541.36
2023-04-07T00:31:26.655Z,541.20
2023-04-07T00:31:36.576Z,541.20
2023-04-07T00:31:46.724Z,541.20
2023-04-07T00:31:56.530Z,541.23
2023-04-07T00:32:06.541Z,541.17
2023-04-07T00:32:16.527Z,541.28
2023-04-07T00:32:26.570Z,541.18
2023-04-07T00:32:36.789Z,541.28
2023-04-07T00:32:46.556Z,541.21
2023-04-07T00:32:56.564Z,541.23
2023-04-07T00:33:09.534Z,541.20
2023-04-07T00:33:16.661Z,541.21
2023-04-07T00:33:26.527Z,541.16
2023-04-07T00:33:36.539Z,541.24
2023-04-07T00:33:56.674Z,541.26
2023-04-07T00:34:06.526Z,541.24
2023-04-07T00:34:16.555Z,541.28
2023-04-07T00:34:26.530Z,541.25
2023-04-07T00:34:36.537Z,541.25
2023-04-07T00:34:46.517Z,541.25
2023-04-07T00:34:56.530Z,541.23
2023-04-07T00:35:06.539Z,541.22
2023-04-07T00:35:26.587Z,541.27
2023-04-07T00:35:36.605Z,541.25
2023-04-07T00:35:46.539Z,541.28
2023-04-07T00:35:56.603Z,541.28
2023-04-07T00:36:06.576Z,541.29
2023-04-07T00:36:16.554Z,541.31
2023-04-07T00:36:26.534Z,541.29
2023-04-07T00:36:36.559Z,541.19
2023-04-07T00:36:46.541Z,541.25
2023-04-07T00:37:06.562Z,541.27
2023-04-07T00:37:16.545Z,541.31
2023-04-07T00:37:26.544Z,541.36
2023-04-07T00:37:36.542Z,541.32
2023-04-07T00:37:46.545Z,541.23
2023-04-07T00:37:56.544Z,541.21
2023-04-07T00:38:06.550Z,541.32
2023-04-07T00:38:16.552Z,541.29
2023-04-07T00:38:26.583Z,541.20
2023-04-07T00:38:36.555Z,541.27
2023-04-07T00:38:46.578Z,541.35
2023-04-07T00:38:56.558Z,541.39
2023-04-07T00:39:06.554Z,541.25
2023-04-07T00:39:16.558Z,541.34
2023-04-07T00:39:26.564Z,541.33
2023-04-07T00:39:36.556Z,541.44
2023-04-07T00:39:46.564Z,541.31
2023-04-07T00:39:56.585Z,541.28
2023-04-07T00:40:06.567Z,541.25
2023-04-07T00:40:16.577Z,541.43
2023-04-07T00:40:36.567Z,541.39
2023-04-07T00:40:46.569Z,541.42
2023-04-07T00:40:56.592Z,541.38
2023-04-07T00:41:06.560Z,541.43
2023-04-07T00:41:16.562Z,541.42
2023-04-07T00:41:26.566Z,541.51
2023-04-07T00:41:36.562Z,541.53
2023-04-07T00:41:46.568Z,541.48
2023-04-07T00:41:56.587Z,541.50
2023-04-07T00:42:06.580Z,541.53
2023-04-07T00:42:16.562Z,541.61
2023-04-07T00:42:26.587Z,541.67
2023-04-07T00:42:36.570Z,541.63
2023-04-07T00:42:46.617Z,541.57
2023-04-07T00:42:56.573Z,541.67
2023-04-07T00:43:06.580Z,541.70
2023-04-07T00:43:16.575Z,541.83
2023-04-07T00:43:26.580Z,541.67
2023-04-07T00:43:36.570Z,541.83
2023-04-07T00:43:56.581Z,541.91
2023-04-07T00:44:06.578Z,541.93
2023-04-07T00:44:16.586Z,541.88
2023-04-07T00:44:26.577Z,541.94
2023-04-07T00:44:36.610Z,541.94
2023-04-07T00:44:46.585Z,541.99
2023-04-07T00:44:56.578Z,541.95
2023-04-07T00:45:06.600Z,542.04
2023-04-07T00:45:16.583Z,542.01
2023-04-07T00:45:26.610Z,542.07
2023-04-07T00:45:36.585Z,542.09
2023-04-07T00:45:46.583Z,542.02
2023-04-07T00:45:56.604Z,542.08
2023-04-07T00:46:06.645Z,542.09
2023-04-07T00:46:16.615Z,542.14
2023-04-07T00:46:36.615Z,542.08
2023-04-07T00:46:46.651Z,542.21
2023-04-07T00:46:56.598Z,542.21
2023-04-07T00:47:06.600Z,542.20
2023-04-07T00:47:16.633Z,542.14
2023-04-07T00:47:26.604Z,542.14
2023-04-07T00:47:36.630Z,542.12
2023-04-07T00:47:46.651Z,542.20
2023-04-07T00:47:56.618Z,542.24
2023-04-07T00:48:16.614Z,542.23
2023-04-07T00:48:26.598Z,542.23
2023-04-07T00:48:36.603Z,542.16
2023-04-07T00:48:46.618Z,542.21
2023-04-07T00:48:56.624Z,542.18
2023-04-07T00:49:06.600Z,542.22
2023-04-07T00:49:26.600Z,542.16
2023-04-07T00:49:36.599Z,542.20
2023-04-07T00:49:46.597Z,542.21
2023-04-07T00:49:56.596Z,542.17
2023-04-07T00:50:06.611Z,542.21
2023-04-07T00:50:16.602Z,542.22
2023-04-07T00:50:26.621Z,542.18
2023-04-07T00:50:36.604Z,542.18
2023-04-07T00:50:46.618Z,542.27
2023-04-07T00:50:56.601Z,542.22
2023-04-07T00:51:06.617Z,542.30
2023-04-07T00:51:16.605Z,542.29
2023-04-07T00:51:26.615Z,542.22
2023-04-07T00:51:36.609Z,542.27
2023-04-07T00:51:56.604Z,542.29
2023-04-07T00:52:06.608Z,542.28
2023-04-07T00:52:16.651Z,542.31
2023-04-07T00:52:26.610Z,542.25
2023-04-07T00:52:36.614Z,542.24
2023-04-07T00:52:46.609Z,542.32
2023-04-07T00:52:56.612Z,542.26
2023-04-07T00:53:06.676Z,542.29
2023-04-07T00:53:16.677Z,542.29
2023-04-07T00:53:26.623Z,542.27
2023-04-07T00:53:36.635Z,542.33
2023-04-07T00:53:46.653Z,542.30
2023-04-07T00:53:57.070Z,542.25
2023-04-07T00:54:06.617Z,542.31
2023-04-07T00:54:16.629Z,542.23
2023-04-07T00:54:26.639Z,542.32
2023-04-07T00:54:36.618Z,542.35
2023-04-07T00:54:56.620Z,542.35
2023-04-07T00:55:06.633Z,542.24
2023-04-07T00:55:16.622Z,542.27
2023-04-07T00:55:26.624Z,542.27
2023-04-07T00:55:36.622Z,542.33
2023-04-07T00:55:46.622Z,542.29
2023-04-07T00:55:56.627Z,542.34
2023-04-07T00:56:06.628Z,542.25
2023-04-07T00:56:16.629Z,542.32
2023-04-07T00:56:26.625Z,542.29
2023-04-07T00:56:36.631Z,542.28
2023-04-07T00:56:46.630Z,542.27
2023-04-07T00:56:56.655Z,542.30
2023-04-07T00:57:06.627Z,542.33
2023-04-07T00:57:16.640Z,542.26
2023-04-07T00:57:26.632Z,542.34
2023-04-07T00:57:36.635Z,542.33
2023-04-07T00:57:46.668Z,542.36
2023-04-07T00:58:06.643Z,542.38
2023-04-07T00:58:16.642Z,542.40
2023-04-07T00:58:26.639Z,542.47
2023-04-07T00:58:36.631Z,542.42
2023-04-07T00:58:46.636Z,542.45
2023-04-07T00:58:56.641Z,542.53
2023-04-07T00:59:06.642Z,542.48
2023-04-07T00:59:16.651Z,542.57
2023-04-07T00:59:26.647Z,542.47
2023-04-07T00:59:36.681Z,542.65
2023-04-07T00:59:46.640Z,542.53
2023-04-07T00:59:56.655Z,542.65
2023-04-07T01:00:06.672Z,542.60
2023-04-07T01:00:16.652Z,542.62
2023-04-07T01:00:26.656Z,542.61
2023-04-07T01:00:46.643Z,542.70
2023-04-07T01:00:56.681Z,542.79
2023-04-07T01:01:06.643Z,542.74
2023-04-07T01:01:16.688Z,542.82
2023-04-07T01:01:26.756Z,542.78
2023-04-07T01:01:36.730Z,542.74
2023-04-07T01:01:46.828Z,542.87
2023-04-07T01:02:06.709Z,542.91
2023-04-07T01:02:16.693Z,542.84
2023-04-07T01:02:26.940Z,542.89
2023-04-07T01:02:36.821Z,542.86
2023-04-07T01:02:46.816Z,543.01
2023-04-07T01:02:56.867Z,542.92
2023-04-07T01:03:06.845Z,542.99
2023-04-07T01:03:16.995Z,542.92
2023-04-07T01:03:26.940Z,543.01
2023-04-07T01:03:36.927Z,542.95
2023-04-07T01:03:46.944Z,542.96
2023-04-07T01:03:56.979Z,543.02
2023-04-07T01:04:06.772Z,542.96
2023-04-07T01:04:16.807Z,542.97
2023-04-07T01:04:26.947Z,542.99
2023-04-07T01:04:36.791Z,543.09
2023-04-07T01:04:46.725Z,543.01
2023-04-07T01:04:56.739Z,543.08
2023-04-07T01:05:06.813Z,543.01
2023-04-07T01:05:16.660Z,543.02
2023-04-07T01:05:26.674Z,543.01
2023-04-07T01:05:36.669Z,543.08
2023-04-07T01:05:46.666Z,543.09
2023-04-07T01:05:56.678Z,543.02
2023-04-07T01:06:06.669Z,543.05
2023-04-07T01:06:16.673Z,542.96
2023-04-07T01:06:26.673Z,543.05
2023-04-07T01:06:36.670Z,543.03
2023-04-07T01:06:46.688Z,543.09
2023-04-07T01:06:56.675Z,543.02
2023-04-07T01:07:06.732Z,543.12
2023-04-07T01:07:26.678Z,543.13
2023-04-07T01:07:36.688Z,543.15
2023-04-07T01:07:46.679Z,543.15
2023-04-07T01:07:56.681Z,543.25
2023-04-07T01:08:06.677Z,543.19
2023-04-07T01:08:16.684Z,543.24
2023-04-07T01:08:26.689Z,543.27
2023-04-07T01:08:36.703Z,543.25
2023-04-07T01:08:46.689Z,543.31
2023-04-07T01:08:56.750Z,543.40
2023-04-07T01:09:06.692Z,543.37
2023-04-07T01:09:26.682Z,543.43
2023-04-07T01:09:36.718Z,543.45
2023-04-07T01:09:46.682Z,543.52
2023-04-07T01:09:56.688Z,543.48
2023-04-07T01:10:06.680Z,543.51
2023-04-07T01:10:16.677Z,543.57
2023-04-07T01:10:26.686Z,543.60
2023-04-07T01:10:36.687Z,543.63
2023-04-07T01:10:56.684Z,543.69
2023-04-07T01:11:06.684Z,543.65
2023-04-07T01:11:16.688Z,543.75
2023-04-07T01:11:26.689Z,543.73
2023-04-07T01:11:36.689Z,543.76
2023-04-07T01:11:46.692Z,543.73
2023-04-07T01:11:56.707Z,543.72
2023-04-07T01:12:06.723Z,543.80
2023-04-07T01:12:16.690Z,543.80
2023-04-07T01:12:26.694Z,543.86
2023-04-07T01:12:36.691Z,543.85
2023-04-07T01:12:46.690Z,543.86
2023-04-07T01:13:06.698Z,543.85
2023-04-07T01:13:16.696Z,543.81
2023-04-07T01:13:26.697Z,543.81
2023-04-07T01:13:36.695Z,543.91
2023-04-07T01:13:46.698Z,543.85
2023-04-07T01:13:56.935Z,543.85
2023-04-07T01:14:06.705Z,543.92
2023-04-07T01:14:16.706Z,543.87
2023-04-07T01:14:26.701Z,543.95
2023-04-07T01:14:36.698Z,543.88
2023-04-07T01:14:46.700Z,543.84
2023-04-07T01:14:56.700Z,543.88
2023-04-07T01:15:06.703Z,543.88
2023-04-07T01:15:16.716Z,543.87
2023-04-07T01:15:26.703Z,543.87
2023-04-07T01:15:36.730Z,543.79
2023-04-07T01:15:46.738Z,543.85
2023-04-07T01:15:56.731Z,543.83
2023-04-07T01:16:06.740Z,543.83
2023-04-07T01:16:16.789Z,543.76
2023-04-07T01:16:26.767Z,543.83
2023-04-07T01:16:46.731Z,543.81
2023-04-07T01:16:56.712Z,543.79
2023-04-07T01:17:06.719Z,543.83
2023-04-07T01:17:16.710Z,543.78
2023-04-07T01:17:26.758Z,543.83
2023-04-07T01:17:36.776Z,543.75
2023-04-07T01:17:46.753Z,543.80
2023-04-07T01:17:56.742Z,543.74
2023-04-07T01:18:06.726Z,543.83
2023-04-07T01:18:16.719Z,543.77
2023-04-07T01:18:36.717Z,543.86
2023-04-07T01:18:46.718Z,543.89
2023-04-07T01:18:56.736Z,543.86
2023-04-07T01:19:06.721Z,543.96
2023-04-07T01:19:16.733Z,543.95
2023-04-07T01:19:26.726Z,543.91
2023-04-07T01:19:36.742Z,543.98
2023-04-07T01:19:46.729Z,543.96
2023-04-07T01:20:06.731Z,543.94
2023-04-07T01:20:16.726Z,544.01
2023-04-07T01:20:26.730Z,544.04
2023-04-07T01:20:36.728Z,544.03
2023-04-07T01:20:46.739Z,544.14
2023-04-07T01:20:56.729Z,544.06
2023-04-07T01:21:06.734Z,544.10
2023-04-07T01:21:16.740Z,544.09
2023-04-07T01:21:26.741Z,544.10
2023-04-07T01:21:36.733Z,544.14
2023-04-07T01:21:46.743Z,544.13
2023-04-07T01:22:06.738Z,544.13
2023-04-07T01:22:16.738Z,544.11
2023-04-07T01:22:26.739Z,544.12
2023-04-07T01:22:36.740Z,544.09
2023-04-07T01:22:46.747Z,544.11
2023-04-07T01:22:56.739Z,544.16
2023-04-07T01:23:06.743Z,544.14
2023-04-07T01:23:16.735Z,544.25
2023-04-07T01:23:26.745Z,544.17
2023-04-07T01:23:36.745Z,544.24
2023-04-07T01:23:46.740Z,544.18
2023-04-07T01:23:56.970Z,544.24
2023-04-07T01:24:06.741Z,544.15
2023-04-07T01:24:16.752Z,544.23
2023-04-07T01:24:26.749Z,544.21
2023-04-07T01:24:36.748Z,544.27
2023-04-07T01:24:56.752Z,544.24
2023-04-07T01:25:06.748Z,544.32
2023-04-07T01:25:16.752Z,544.28
2023-04-07T01:25:26.745Z,544.26
2023-04-07T01:25:36.765Z,544.33
2023-04-07T01:25:46.760Z,544.26
2023-04-07T01:25:56.751Z,544.34
2023-04-07T01:26:06.751Z,544.31
2023-04-07T01:26:16.760Z,544.39
2023-04-07T01:26:26.749Z,544.33
2023-04-07T01:26:36.767Z,544.40
2023-04-07T01:26:46.763Z,544.34
2023-04-07T01:26:56.775Z,544.38
2023-04-07T01:27:06.766Z,544.35
2023-04-07T01:27:16.759Z,544.50
2023-04-07T01:27:26.759Z,544.41
2023-04-07T01:27:36.759Z,544.51
2023-04-07T01:27:56.759Z,544.48
2023-04-07T01:28:06.763Z,544.42
2023-04-07T01:28:16.759Z,544.51
2023-04-07T01:28:26.761Z,544.44
2023-04-07T01:28:36.772Z,544.42
2023-04-07T01:28:46.784Z,544.40
2023-04-07T01:28:56.764Z,544.41
2023-04-07T01:29:06.769Z,544.36
2023-04-07T01:29:16.766Z,544.42
2023-04-07T01:29:26.763Z,544.39
2023-04-07T01:29:36.792Z,544.28
2023-04-07T01:29:56.767Z,544.39
2023-04-07T01:30:06.761Z,544.40
2023-04-07T01:30:16.765Z,544.31
2023-04-07T01:30:26.763Z,544.32
2023-04-07T01:30:36.774Z,544.36
2023-04-07T01:30:46.768Z,544.32
2023-04-07T01:30:56.775Z,544.30
2023-04-07T01:31:06.779Z,544.35
2023-04-07T01:31:16.798Z,544.27
2023-04-07T01:31:26.915Z,544.35
2023-04-07T01:31:36.811Z,544.28
2023-04-07T01:31:46.827Z,544.25
2023-04-07T01:31:56.846Z,544.32
2023-04-07T01:32:06.821Z,544.20
2023-04-07T01:32:16.773Z,544.26
2023-04-07T01:32:26.801Z,544.24
2023-04-07T01:32:36.796Z,544.31
2023-04-07T01:32:46.817Z,544.29
2023-04-07T01:32:56.812Z,544.32
2023-04-07T01:33:06.786Z,544.28
2023-04-07T01:33:16.783Z,544.37
2023-04-07T01:33:26.775Z,544.34
2023-04-07T01:33:37.784Z,544.37
2023-04-07T01:33:56.912Z,544.40
2023-04-07T01:34:06.788Z,544.40
2023-04-07T01:34:16.783Z,544.43
2023-04-07T01:34:26.828Z,544.34
2023-04-07T01:34:36.784Z,544.46
2023-04-07T01:34:46.784Z,544.41
2023-04-07T01:34:56.793Z,544.44
2023-04-07T01:35:16.798Z,544.47
2023-04-07T01:35:26.796Z,544.57
2023-04-07T01:35:36.793Z,544.55
2023-04-07T01:35:46.791Z,544.64
2023-04-07T01:35:56.791Z,544.62
2023-04-07T01:36:06.804Z,544.66
2023-04-07T01:36:16.799Z,544.65
2023-04-07T01:36:26.825Z,544.63
2023-04-07T01:36:36.830Z,544.60
2023-04-07T01:36:46.840Z,544.70
2023-04-07T01:36:56.884Z,544.67
2023-04-07T01:37:06.864Z,544.74
2023-04-07T01:37:16.832Z,544.68
2023-04-07T01:37:26.835Z,544.76
2023-04-07T01:37:46.806Z,544.76
2023-04-07T01:37:56.804Z,544.78
2023-04-07T01:38:06.813Z,544.75
2023-04-07T01:38:16.810Z,544.81
2023-04-07T01:38:26.811Z,544.81
2023-04-07T01:38:36.809Z,544.84
2023-04-07T01:38:46.816Z,544.85
2023-04-07T01:38:56.809Z,544.80
2023-04-07T01:39:06.857Z,544.91
2023-04-07T01:39:16.812Z,544.92
2023-04-07T01:39:26.828Z,544.84
2023-04-07T01:39:36.820Z,544.89
2023-04-07T01:39:46.832Z,544.82
2023-04-07T01:39:56.827Z,544.94
2023-04-07T01:40:16.825Z,544.90
2023-04-07T01:40:26.826Z,544.92
2023-04-07T01:40:36.826Z,544.92
2023-04-07T01:40:46.828Z,544.92
2023-04-07T01:40:56.821Z,544.94
2023-04-07T01:41:06.844Z,544.92
2023-04-07T01:41:16.838Z,544.84
2023-04-07T01:41:26.884Z,544.89
2023-04-07T01:41:46.828Z,544.85
2023-04-07T01:41:56.824Z,544.80
2023-04-07T01:42:06.829Z,544.83
2023-04-07T01:42:16.823Z,544.74
2023-04-07T01:42:26.846Z,544.81
2023-04-07T01:42:36.871Z,544.69
2023-04-07T01:42:46.832Z,544.69
2023-04-07T01:42:56.834Z,544.74
2023-04-07T01:43:06.829Z,544.71
2023-04-07T01:43:16.836Z,544.74
2023-04-07T01:43:26.831Z,544.62
2023-04-07T01:43:36.834Z,544.69
2023-04-07T01:43:56.832Z,544.64
2023-04-07T01:44:06.836Z,544.58
2023-04-07T01:44:16.839Z,544.56
2023-04-07T01:44:26.842Z,544.60
2023-04-07T01:44:36.839Z,544.53
2023-04-07T01:44:46.839Z,544.51
2023-04-07T01:44:56.835Z,544.56
2023-04-07T01:45:06.838Z,544.50
2023-04-07T01:45:16.860Z,544.48
2023-04-07T01:45:26.851Z,544.53
2023-04-07T01:45:36.839Z,544.52
2023-04-07T01:45:46.841Z,544.44
2023-04-07T01:45:56.850Z,544.54
2023-04-07T01:46:06.850Z,544.46
2023-04-07T01:46:16.843Z,544.53
2023-04-07T01:46:26.843Z,544.45
2023-04-07T01:46:36.899Z,544.51
2023-04-07T01:46:56.881Z,544.46
2023-04-07T01:47:06.872Z,544.52
2023-04-07T01:47:16.880Z,544.49
2023-04-07T01:47:27.077Z,544.48
2023-04-07T01:47:36.902Z,544.58
2023-04-07T01:47:46.876Z,544.58
2023-04-07T01:47:56.897Z,544.63
2023-04-07T01:48:06.902Z,544.58
2023-04-07T01:48:16.866Z,544.53
2023-04-07T01:48:26.872Z,544.63
2023-04-07T01:48:36.850Z,544.59
2023-04-07T01:48:46.900Z,544.68
2023-04-07T01:48:56.857Z,544.62
2023-04-07T01:49:06.853Z,544.66
2023-04-07T01:49:16.857Z,544.71
2023-04-07T01:49:26.849Z,544.67
2023-04-07T01:49:36.863Z,544.67
2023-04-07T01:49:46.860Z,544.76
2023-04-07T01:50:06.859Z,544.78
2023-04-07T01:50:16.864Z,544.78
2023-04-07T01:50:26.866Z,544.80
2023-04-07T01:50:36.861Z,544.75
2023-04-07T01:50:46.866Z,544.76
2023-04-07T01:50:56.880Z,544.69
2023-04-07T01:51:06.867Z,544.70
2023-04-07T01:51:16.867Z,544.73
2023-04-07T01:51:26.867Z,544.79
2023-04-07T01:51:36.866Z,544.80
2023-04-07T01:51:46.874Z,544.82
2023-04-07T01:51:56.884Z,544.77
2023-04-07T01:52:06.871Z,544.81
2023-04-07T01:52:16.874Z,544.79
2023-04-07T01:52:26.872Z,544.86
2023-04-07T01:52:36.868Z,544.82
2023-04-07T01:52:56.888Z,544.88
2023-04-07T01:53:06.873Z,544.81
2023-04-07T01:53:16.880Z,544.87
2023-04-07T01:53:26.879Z,544.81
2023-04-07T01:53:36.875Z,544.82
2023-04-07T01:53:46.880Z,544.83
2023-04-07T01:53:56.954Z,544.83
2023-04-07T01:54:06.879Z,544.80
2023-04-07T01:54:16.889Z,544.72
2023-04-07T01:54:26.877Z,544.79
2023-04-07T01:54:36.884Z,544.74
2023-04-07T01:54:46.887Z,544.81
2023-04-07T01:54:56.881Z,544.76
2023-04-07T01:55:06.919Z,544.74
2023-04-07T01:55:26.890Z,544.72
2023-04-07T01:55:36.886Z,544.71
2023-04-07T01:55:46.921Z,544.79
2023-04-07T01:55:56.910Z,544.73
2023-04-07T01:56:06.897Z,544.77
2023-04-07T01:56:16.894Z,544.70
2023-04-07T01:56:26.924Z,544.70
2023-04-07T01:56:36.901Z,544.65
2023-04-07T01:56:56.898Z,544.71
2023-04-07T01:57:06.891Z,544.69
2023-04-07T01:57:16.913Z,544.67
2023-04-07T01:57:26.903Z,544.61
2023-04-07T01:57:36.903Z,544.66
2023-04-07T01:57:46.924Z,544.61
2023-04-07T01:57:56.901Z,544.68
2023-04-07T01:58:06.894Z,544.62
2023-04-07T01:58:16.919Z,544.69
2023-04-07T01:58:26.902Z,544.61
2023-04-07T01:58:36.897Z,544.70
2023-04-07T01:58:56.905Z,544.68
2023-04-07T01:59:06.902Z,544.61
2023-04-07T01:59:16.913Z,544.69
2023-04-07T01:59:26.908Z,544.64
2023-04-07T01:59:36.936Z,544.68
2023-04-07T01:59:46.912Z,544.67
2023-04-07T01:59:56.913Z,544.71
2023-04-07T02:00:06.905Z,544.69
2023-04-07T02:00:16.919Z,544.68
2023-04-07T02:00:26.907Z,544.63
2023-04-07T02:00:36.919Z,544.69
2023-04-07T02:00:46.938Z,544.63
2023-04-07T02:00:56.978Z,544.69
2023-04-07T02:01:06.952Z,544.68
2023-04-07T02:01:17.010Z,544.70
2023-04-07T02:01:26.991Z,544.66
2023-04-07T02:01:37.013Z,544.71
2023-04-07T02:01:47.037Z,544.63
2023-04-07T02:01:56.995Z,544.70
2023-04-07T02:02:06.978Z,544.65
2023-04-07T02:02:27.128Z,544.70
2023-04-07T02:02:37.092Z,544.67
2023-04-07T02:02:47.022Z,544.73
2023-04-07T02:02:57.084Z,544.76
2023-04-07T02:03:07.154Z,544.69
2023-04-07T02:03:17.042Z,544.69
2023-04-07T02:03:27.039Z,544.73
2023-04-07T02:03:46.990Z,544.78
2023-04-07T02:03:57.316Z,544.85
2023-04-07T02:04:06.947Z,544.79
2023-04-07T02:04:16.949Z,544.88
2023-04-07T02:04:26.931Z,544.88
2023-04-07T02:04:36.924Z,544.87
2023-04-07T02:04:56.988Z,544.96
2023-04-07T02:05:06.932Z,544.95
2023-04-07T02:05:16.937Z,544.94
2023-04-07T02:05:26.944Z,544.94
2023-04-07T02:05:36.936Z,544.91
2023-04-07T02:05:46.937Z,544.91
2023-04-07T02:05:56.943Z,544.93
2023-04-07T02:06:06.943Z,544.96
2023-04-07T02:06:16.956Z,545.01
2023-04-07T02:06:26.939Z,545.06
2023-04-07T02:06:36.940Z,545.05
2023-04-07T02:06:46.938Z,545.10
2023-04-07T02:06:56.943Z,545.08
2023-04-07T02:07:06.954Z,545.05
2023-04-07T02:07:16.944Z,545.16
2023-04-07T02:07:26.940Z,545.14
2023-04-07T02:07:36.954Z,545.19
2023-04-07T02:07:46.944Z,545.16
2023-04-07T02:08:06.950Z,545.23
2023-04-07T02:08:16.949Z,545.19
2023-04-07T02:08:26.985Z,545.15
2023-04-07T02:08:36.962Z,545.24
2023-04-07T02:08:46.950Z,545.20
2023-04-07T02:08:56.947Z,545.29
2023-04-07T02:09:06.953Z,545.25
2023-04-07T02:09:16.954Z,545.27
2023-04-07T02:09:36.955Z,545.30
2023-04-07T02:09:46.958Z,545.32
2023-04-07T02:09:56.961Z,545.36
2023-04-07T02:10:06.955Z,545.35
2023-04-07T02:10:16.961Z,545.31
2023-04-07T02:10:26.961Z,545.38
2023-04-07T02:10:37.001Z,545.31
2023-04-07T02:10:46.962Z,545.38
2023-04-07T02:10:56.957Z,545.39
2023-04-07T02:11:06.954Z,545.34
2023-04-07T02:11:16.961Z,545.37
2023-04-07T02:11:26.958Z,545.31
2023-04-07T02:11:36.964Z,545.37
2023-04-07T02:11:46.962Z,545.32
2023-04-07T02:11:56.979Z,545.33
2023-04-07T02:12:06.982Z,545.40
2023-04-07T02:12:16.966Z,545.43
2023-04-07T02:12:26.971Z,545.39
2023-04-07T02:12:36.971Z,545.46
2023-04-07T02:12:46.967Z,545.45
2023-04-07T02:12:56.971Z,545.52
2023-04-07T02:13:06.970Z,545.45
2023-04-07T02:13:16.979Z,545.50
2023-04-07T02:13:26.970Z,545.46
2023-04-07T02:13:36.985Z,545.51
2023-04-07T02:13:46.977Z,545.44